Time;durP1;ratioP1;P1;durP2;ratioP2;P2;SDS_P1;SDS_P2;PMS_P1;PMS_P2;Temp;Humidity;BMP_temperature;BMP_pressure;BME280_temperature;BME280_humidity;BME280_pressure;Samples;Min_cycle;Max_cycle;Signal;HPM_P1;HPM_P2
2023/08/13 00:01:31;;;;;;;4.88;2.30;;;;;;;;;;5060531;28;20024;-66
2023/08/13 00:03:58;;;;;;;2.80;2.20;;;;;;;;;;5062194;28;20468;-67
2023/08/13 00:06:24;;;;;;;3.78;2.03;;;;;;;;;;5052871;28;20472;-66
2023/08/13 00:08:50;;;;;;;6.18;2.53;;;;;;;;;;5061365;28;20369;-66
2023/08/13 00:11:16;;;;;;;5.03;2.67;;;;;;;;;;5060378;28;20029;-67
2023/08/13 00:13:42;;;;;;;3.95;2.67;;;;;;;;;;5059707;28;20472;-67
2023/08/13 00:16:08;;;;;;;1.98;1.77;;;;;;;;;;5065344;28;20150;-66
2023/08/13 00:18:35;;;;;;;2.78;2.03;;;;;;;;;;5055078;28;20024;-66
2023/08/13 00:21:01;;;;;;;4.80;1.90;;;;;;;;;;5059683;28;20111;-67
2023/08/13 00:23:27;;;;;;;5.43;2.20;;;;;;;;;;5058679;28;20397;-66
2023/08/13 00:25:54;;;;;;;2.63;1.98;;;;;;;;;;5054379;28;20032;-66
2023/08/13 00:28:20;;;;;;;5.03;2.40;;;;;;;;;;5052478;28;20118;-67
2023/08/13 00:30:46;;;;;;;2.63;2.13;;;;;;;;;;5045084;28;20066;-66
2023/08/13 00:33:12;;;;;;;4.22;2.80;;;;;;;;;;5067304;28;20123;-66
2023/08/13 00:35:38;;;;;;;6.90;2.05;;;;;;;;;;5053801;28;20045;-67
2023/08/13 00:38:04;;;;;;;2.92;1.90;;;;;;;;;;5055282;28;20366;-66
2023/08/13 00:40:30;;;;;;;4.15;2.08;;;;;;;;;;5055310;28;20385;-67
2023/08/13 00:42:56;;;;;;;4.53;2.40;;;;;;;;;;5056412;28;20033;-66
2023/08/13 00:45:22;;;;;;;3.15;2.10;;;;;;;;;;5048571;28;20043;-66
2023/08/13 00:47:49;;;;;;;8.40;2.63;;;;;;;;;;5068926;28;20028;-66
2023/08/13 00:50:17;;;;;;;4.03;1.95;;;;;;;;;;5050376;28;20560;-66
2023/08/13 00:52:43;;;;;;;8.18;3.35;;;;;;;;;;5056670;28;20454;-66
2023/08/13 00:55:09;;;;;;;4.50;2.38;;;;;;;;;;5054845;28;20033;-66
2023/08/13 00:57:35;;;;;;;3.25;1.90;;;;;;;;;;5057594;28;20455;-67
2023/08/13 01:00:02;;;;;;;4.47;2.72;;;;;;;;;;5062783;28;20063;-66
2023/08/13 01:02:28;;;;;;;4.10;2.20;;;;;;;;;;5051421;28;20074;-70
2023/08/13 01:04:55;;;;;;;5.15;2.67;;;;;;;;;;5061367;28;20343;-67
2023/08/13 01:07:21;;;;;;;4.47;2.20;;;;;;;;;;5052762;28;20032;-66
2023/08/13 01:09:48;;;;;;;5.07;2.00;;;;;;;;;;5060197;28;20038;-66
2023/08/13 01:12:28;;;;;;;5.90;2.38;;;;;;;;;;5050660;28;20039;-66
2023/08/13 01:14:57;;;;;;;6.00;2.30;;;;;;;;;;5063134;28;20037;-69
2023/08/13 01:17:25;;;;;;;3.33;2.08;;;;;;;;;;5069260;28;20059;-66
2023/08/13 01:19:51;;;;;;;3.75;2.00;;;;;;;;;;5051329;28;20025;-66
2023/08/13 01:22:17;;;;;;;6.13;2.38;;;;;;;;;;5059541;28;20056;-67
2023/08/13 01:24:44;;;;;;;6.07;2.05;;;;;;;;;;5057402;28;20055;-66
2023/08/13 01:27:25;;;;;;;4.32;2.80;;;;;;;;;;5058107;28;20086;-67
2023/08/13 01:30:14;;;;;;;5.88;2.30;;;;;;;;;;5059792;28;20040;-67
2023/08/13 01:32:43;;;;;;;3.53;2.30;;;;;;;;;;5052261;28;20032;-67
2023/08/13 01:35:09;;;;;;;4.45;2.38;;;;;;;;;;5054611;28;20408;-66
2023/08/13 01:37:36;;;;;;;5.15;2.50;;;;;;;;;;5055941;28;20020;-66
2023/08/13 01:40:03;;;;;;;3.35;2.03;;;;;;;;;;5058042;28;20031;-66
2023/08/13 01:42:33;;;;;;;5.25;2.20;;;;;;;;;;5057153;28;20485;-66
2023/08/13 01:44:59;;;;;;;4.20;2.10;;;;;;;;;;5052289;28;20447;-66
2023/08/13 01:47:25;;;;;;;4.72;2.35;;;;;;;;;;5054829;28;20021;-66
2023/08/13 01:49:51;;;;;;;5.47;2.13;;;;;;;;;;5048642;28;20055;-67
2023/08/13 01:52:17;;;;;;;7.20;2.60;;;;;;;;;;5049947;28;20684;-66
2023/08/13 01:54:43;;;;;;;5.88;4.03;;;;;;;;;;5068832;28;20031;-66
2023/08/13 01:57:09;;;;;;;3.85;2.05;;;;;;;;;;5058046;28;20033;-66
2023/08/13 01:59:35;;;;;;;3.55;2.10;;;;;;;;;;5050771;28;20024;-66
2023/08/13 02:02:01;;;;;;;3.85;1.90;;;;;;;;;;5058048;28;20028;-66
2023/08/13 02:04:27;;;;;;;9.05;2.35;;;;;;;;;;5043826;28;20545;-66
2023/08/13 02:06:53;;;;;;;4.80;2.50;;;;;;;;;;5050402;28;20048;-66
2023/08/13 02:09:20;;;;;;;5.18;2.10;;;;;;;;;;5053572;28;20649;-66
2023/08/13 02:11:46;;;;;;;2.72;2.10;;;;;;;;;;5052798;28;20017;-67
2023/08/13 02:14:12;;;;;;;4.10;2.30;;;;;;;;;;5059998;28;20442;-66
2023/08/13 02:16:38;;;;;;;2.53;2.05;;;;;;;;;;5066548;28;20115;-66
2023/08/13 02:19:05;;;;;;;5.35;1.98;;;;;;;;;;5062660;28;20097;-66
2023/08/13 02:21:31;;;;;;;3.13;2.28;;;;;;;;;;5044062;28;20020;-66
2023/08/13 02:23:57;;;;;;;6.22;2.13;;;;;;;;;;5059150;28;20136;-66
2023/08/13 02:26:23;;;;;;;5.63;2.22;;;;;;;;;;5056591;28;20107;-66
2023/08/13 02:28:49;;;;;;;7.88;2.42;;;;;;;;;;5053757;28;20033;-66
2023/08/13 02:31:15;;;;;;;3.60;2.15;;;;;;;;;;5055494;28;20032;-66
2023/08/13 02:33:41;;;;;;;6.13;2.20;;;;;;;;;;5051546;28;20036;-66
2023/08/13 02:36:07;;;;;;;5.95;3.10;;;;;;;;;;5055097;28;20044;-66
2023/08/13 02:38:33;;;;;;;5.70;2.28;;;;;;;;;;5052205;28;20505;-67
2023/08/13 02:40:59;;;;;;;4.60;2.33;;;;;;;;;;5064699;28;20392;-66
2023/08/13 02:43:28;;;;;;;8.68;2.30;;;;;;;;;;5051261;28;20149;-66
2023/08/13 02:45:54;;;;;;;7.50;2.50;;;;;;;;;;5046820;28;20035;-66
2023/08/13 02:48:20;;;;;;;7.90;3.25;;;;;;;;;;5055375;28;20028;-66
2023/08/13 02:50:46;;;;;;;4.97;2.38;;;;;;;;;;5052606;28;20107;-66
2023/08/13 02:53:12;;;;;;;5.00;2.20;;;;;;;;;;5061294;28;20063;-66
2023/08/13 02:55:38;;;;;;;4.22;2.10;;;;;;;;;;5062087;28;20040;-66
2023/08/13 02:58:04;;;;;;;4.85;2.10;;;;;;;;;;5042557;28;20093;-68
2023/08/13 03:00:30;;;;;;;4.15;2.10;;;;;;;;;;5055937;28;20373;-67
2023/08/13 03:02:57;;;;;;;4.85;2.00;;;;;;;;;;5051852;28;20055;-66
2023/08/13 03:05:23;;;;;;;5.03;2.30;;;;;;;;;;5049130;28;20476;-66
2023/08/13 03:07:49;;;;;;;5.20;2.22;;;;;;;;;;5058475;28;20024;-66
2023/08/13 03:10:15;;;;;;;4.07;2.50;;;;;;;;;;5066612;28;20372;-67
2023/08/13 03:12:41;;;;;;;3.47;2.30;;;;;;;;;;5051520;28;20059;-66
2023/08/13 03:15:07;;;;;;;7.13;2.60;;;;;;;;;;5056502;28;20298;-67
2023/08/13 03:17:33;;;;;;;4.03;2.28;;;;;;;;;;5048661;28;20028;-66
2023/08/13 03:19:59;;;;;;;3.20;2.17;;;;;;;;;;5056374;28;20025;-66
2023/08/13 03:22:26;;;;;;;4.15;2.17;;;;;;;;;;5056820;28;20427;-66
2023/08/13 03:24:52;;;;;;;5.63;2.67;;;;;;;;;;5057166;28;20051;-67
2023/08/13 03:27:18;;;;;;;5.80;2.70;;;;;;;;;;5054626;28;20037;-66
2023/08/13 03:29:44;;;;;;;4.93;2.92;;;;;;;;;;5059371;28;20028;-66
2023/08/13 03:32:10;;;;;;;3.95;2.15;;;;;;;;;;5055587;28;20024;-68
2023/08/13 03:34:36;;;;;;;3.97;2.33;;;;;;;;;;5058594;28;20432;-66
2023/08/13 03:37:02;;;;;;;6.53;2.25;;;;;;;;;;5057506;28;20037;-66
2023/08/13 03:39:28;;;;;;;2.90;2.22;;;;;;;;;;5053905;28;20052;-66
2023/08/13 03:41:54;;;;;;;4.03;2.30;;;;;;;;;;5060810;28;20020;-66
2023/08/13 03:44:20;;;;;;;3.25;2.00;;;;;;;;;;5056809;28;20032;-66
2023/08/13 03:46:46;;;;;;;5.82;2.55;;;;;;;;;;5061397;28;20021;-66
2023/08/13 03:49:12;;;;;;;5.35;2.45;;;;;;;;;;5060691;28;20391;-66
2023/08/13 03:51:38;;;;;;;4.30;2.75;;;;;;;;;;5060899;28;20281;-66
2023/08/13 03:54:05;;;;;;;3.40;2.20;;;;;;;;;;5055575;28;20033;-66
2023/08/13 03:56:31;;;;;;;6.88;2.35;;;;;;;;;;5059125;28;20475;-66
2023/08/13 03:58:57;;;;;;;4.63;2.20;;;;;;;;;;5056951;28;20024;-67
2023/08/13 04:01:23;;;;;;;3.13;2.25;;;;;;;;;;5059550;28;20132;-67
2023/08/13 04:03:49;;;;;;;3.20;2.05;;;;;;;;;;5059284;28;20382;-67
2023/08/13 04:06:15;;;;;;;5.97;2.08;;;;;;;;;;5057227;28;20029;-65
2023/08/13 04:08:41;;;;;;;3.13;2.50;;;;;;;;;;5065770;28;20021;-66
2023/08/13 04:11:08;;;;;;;4.68;1.98;;;;;;;;;;5055018;28;20028;-66
2023/08/13 04:13:34;;;;;;;4.07;2.20;;;;;;;;;;5053280;28;20043;-65
2023/08/13 04:16:00;;;;;;;2.75;2.00;;;;;;;;;;5057990;28;20016;-66
2023/08/13 04:18:26;;;;;;;2.53;2.00;;;;;;;;;;5050891;28;20587;-68
2023/08/13 04:20:52;;;;;;;4.40;2.20;;;;;;;;;;5059222;28;20029;-66
2023/08/13 04:23:18;;;;;;;3.00;2.50;;;;;;;;;;5060430;28;20048;-66
2023/08/13 04:25:44;;;;;;;4.72;2.17;;;;;;;;;;5051795;28;20044;-66
2023/08/13 04:28:10;;;;;;;2.50;2.10;;;;;;;;;;5055247;28;20500;-66
2023/08/13 04:30:36;;;;;;;3.08;2.08;;;;;;;;;;5074102;28;20028;-66
2023/08/13 04:33:02;;;;;;;4.97;2.35;;;;;;;;;;5050675;28;20028;-67
2023/08/13 04:35:28;;;;;;;4.72;2.40;;;;;;;;;;5051675;28;20049;-66
2023/08/13 04:37:55;;;;;;;2.42;2.03;;;;;;;;;;5046662;28;20036;-66
2023/08/13 04:40:21;;;;;;;5.13;2.28;;;;;;;;;;5051895;28;20152;-66
2023/08/13 04:42:47;;;;;;;4.18;1.85;;;;;;;;;;5049964;28;20029;-66
2023/08/13 04:45:13;;;;;;;5.38;2.45;;;;;;;;;;5055427;28;20017;-66
2023/08/13 04:47:39;;;;;;;7.30;3.20;;;;;;;;;;5054982;28;20155;-65
2023/08/13 04:50:06;;;;;;;4.32;2.00;;;;;;;;;;5054405;28;20029;-67
2023/08/13 04:52:32;;;;;;;3.85;2.00;;;;;;;;;;5054015;28;20032;-66
2023/08/13 04:54:58;;;;;;;3.38;2.20;;;;;;;;;;5054832;28;20082;-66
2023/08/13 04:57:24;;;;;;;6.35;2.53;;;;;;;;;;5053313;28;20028;-65
2023/08/13 04:59:50;;;;;;;7.18;2.55;;;;;;;;;;5059481;28;20028;-65
2023/08/13 05:02:16;;;;;;;3.58;2.30;;;;;;;;;;5064079;28;20025;-66
2023/08/13 05:04:42;;;;;;;2.78;2.20;;;;;;;;;;5061264;28;20033;-66
2023/08/13 05:07:09;;;;;;;5.00;2.30;;;;;;;;;;5056303;28;20114;-66
2023/08/13 05:09:35;;;;;;;4.55;2.20;;;;;;;;;;5052106;28;20608;-66
2023/08/13 05:12:01;;;;;;;7.15;2.45;;;;;;;;;;5053448;28;20025;-67
2023/08/13 05:14:27;;;;;;;3.60;2.13;;;;;;;;;;5066758;28;20055;-68
2023/08/13 05:16:56;;;;;;;4.50;2.45;;;;;;;;;;5058499;28;20033;-66
2023/08/13 05:19:22;;;;;;;3.53;2.05;;;;;;;;;;5058911;28;20132;-66
2023/08/13 05:21:51;;;;;;;2.72;1.88;;;;;;;;;;5054950;28;20043;-66
2023/08/13 05:24:17;;;;;;;5.22;1.95;;;;;;;;;;5069795;28;20025;-66
2023/08/13 05:26:43;;;;;;;7.68;2.35;;;;;;;;;;5056104;28;20036;-66
2023/08/13 05:29:10;;;;;;;3.10;2.42;;;;;;;;;;5063251;28;20024;-66
2023/08/13 05:31:36;;;;;;;6.35;2.35;;;;;;;;;;5058731;28;20025;-66
2023/08/13 05:34:02;;;;;;;5.70;2.45;;;;;;;;;;5049723;28;21253;-66
2023/08/13 05:36:28;;;;;;;6.50;1.92;;;;;;;;;;5056311;28;20136;-66
2023/08/13 05:38:54;;;;;;;6.60;2.33;;;;;;;;;;5055124;28;20537;-66
2023/08/13 05:41:20;;;;;;;3.95;2.10;;;;;;;;;;5049688;28;20024;-66
2023/08/13 05:43:46;;;;;;;4.60;1.85;;;;;;;;;;5047109;28;20025;-66
2023/08/13 05:46:13;;;;;;;4.07;2.10;;;;;;;;;;5052684;28;20538;-66
2023/08/13 05:48:39;;;;;;;5.95;2.00;;;;;;;;;;5051149;28;20048;-66
2023/08/13 05:51:05;;;;;;;5.50;2.15;;;;;;;;;;5050582;28;20024;-66
2023/08/13 05:53:31;;;;;;;5.90;2.47;;;;;;;;;;5056667;28;20025;-66
2023/08/13 05:56:00;;;;;;;3.53;2.55;;;;;;;;;;5057991;28;20023;-66
2023/08/13 05:58:26;;;;;;;2.47;1.88;;;;;;;;;;5051737;28;20058;-66
2023/08/13 06:00:52;;;;;;;6.00;2.10;;;;;;;;;;5062112;28;20641;-66
2023/08/13 06:03:18;;;;;;;5.43;1.95;;;;;;;;;;5057288;28;20261;-65
2023/08/13 06:05:45;;;;;;;6.43;2.00;;;;;;;;;;5051650;28;20029;-66
2023/08/13 06:08:11;;;;;;;4.97;2.00;;;;;;;;;;5043528;28;20024;-67
2023/08/13 06:10:38;;;;;;;4.50;2.30;;;;;;;;;;5051271;28;20531;-66
2023/08/13 06:13:04;;;;;;;3.40;1.85;;;;;;;;;;5046941;28;20352;-66
2023/08/13 06:15:30;;;;;;;2.75;1.80;;;;;;;;;;5054083;28;20032;-66
2023/08/13 06:17:56;;;;;;;2.60;1.98;;;;;;;;;;5053721;28;20463;-66
2023/08/13 06:20:23;;;;;;;2.88;1.90;;;;;;;;;;5053541;28;20028;-66
2023/08/13 06:22:49;;;;;;;5.78;2.53;;;;;;;;;;5054973;28;20031;-66
2023/08/13 06:25:16;;;;;;;5.95;2.85;;;;;;;;;;5047550;28;20115;-66
2023/08/13 06:27:42;;;;;;;3.42;2.78;;;;;;;;;;5046505;28;20140;-66
2023/08/13 06:30:08;;;;;;;4.63;2.63;;;;;;;;;;5042904;28;20062;-66
2023/08/13 06:32:35;;;;;;;3.65;2.00;;;;;;;;;;5046098;28;20196;-67
2023/08/13 06:35:01;;;;;;;8.75;3.25;;;;;;;;;;5045707;28;20412;-66
2023/08/13 06:37:27;;;;;;;6.60;2.72;;;;;;;;;;5049851;28;20040;-66
2023/08/13 06:39:53;;;;;;;10.38;2.10;;;;;;;;;;5052020;28;20023;-66
2023/08/13 06:42:19;;;;;;;2.50;1.75;;;;;;;;;;5051711;28;20492;-66
2023/08/13 06:44:45;;;;;;;3.45;2.17;;;;;;;;;;5053332;28;20242;-65
2023/08/13 06:47:12;;;;;;;4.32;1.80;;;;;;;;;;5047954;28;20432;-65
2023/08/13 06:49:39;;;;;;;3.53;2.08;;;;;;;;;;5050118;28;20171;-66
2023/08/13 06:52:05;;;;;;;4.03;2.00;;;;;;;;;;5052730;28;20133;-66
2023/08/13 06:54:31;;;;;;;4.25;2.60;;;;;;;;;;5056958;28;20201;-65
2023/08/13 06:56:57;;;;;;;4.03;2.15;;;;;;;;;;5057033;28;20121;-66
2023/08/13 06:59:23;;;;;;;6.28;2.72;;;;;;;;;;5048527;28;20024;-65
2023/08/13 07:01:49;;;;;;;4.80;1.65;;;;;;;;;;5056298;28;20025;-66
2023/08/13 07:04:15;;;;;;;8.00;2.97;;;;;;;;;;5051538;28;20253;-66
2023/08/13 07:06:41;;;;;;;4.03;2.00;;;;;;;;;;5060331;28;20029;-66
2023/08/13 07:09:08;;;;;;;3.00;2.40;;;;;;;;;;5054646;28;20037;-66
2023/08/13 07:11:36;;;;;;;2.85;1.85;;;;;;;;;;5059660;28;20045;-66
2023/08/13 07:14:03;;;;;;;3.83;2.05;;;;;;;;;;5053748;28;20388;-66
2023/08/13 07:16:30;;;;;;;3.40;1.67;;;;;;;;;;5060646;28;20488;-66
2023/08/13 07:18:56;;;;;;;5.60;2.00;;;;;;;;;;5061407;28;20032;-66
2023/08/13 07:21:22;;;;;;;6.85;2.60;;;;;;;;;;5060567;28;20039;-65
2023/08/13 07:23:48;;;;;;;6.63;2.20;;;;;;;;;;5053092;28;20024;-66
2023/08/13 07:26:15;;;;;;;5.10;1.80;;;;;;;;;;5056358;28;20052;-66
2023/08/13 07:28:41;;;;;;;2.15;1.70;;;;;;;;;;5061296;28;20028;-66
2023/08/13 07:31:07;;;;;;;4.20;2.22;;;;;;;;;;5055779;28;20035;-67
2023/08/13 07:33:34;;;;;;;3.85;2.10;;;;;;;;;;5058565;28;20571;-66
2023/08/13 07:36:00;;;;;;;3.47;2.00;;;;;;;;;;5060818;28;20520;-66
2023/08/13 07:38:27;;;;;;;3.80;1.85;;;;;;;;;;5055581;28;20068;-65
2023/08/13 07:40:55;;;;;;;2.28;1.60;;;;;;;;;;5059240;28;20405;-66
2023/08/13 07:43:21;;;;;;;3.20;1.80;;;;;;;;;;5049157;28;20413;-66
2023/08/13 07:45:47;;;;;;;7.22;2.10;;;;;;;;;;5064952;28;20546;-65
2023/08/13 07:48:13;;;;;;;6.30;2.15;;;;;;;;;;5061799;28;20063;-66
2023/08/13 07:50:40;;;;;;;3.58;1.80;;;;;;;;;;5054191;28;20488;-66
2023/08/13 07:53:06;;;;;;;3.80;1.88;;;;;;;;;;5053156;28;20036;-66
2023/08/13 07:55:33;;;;;;;4.28;1.95;;;;;;;;;;5055071;28;20038;-66
2023/08/13 07:57:59;;;;;;;2.40;1.95;;;;;;;;;;5053432;28;20415;-65
2023/08/13 08:00:26;;;;;;;3.63;2.10;;;;;;;;;;5063358;28;20027;-66
2023/08/13 08:02:53;;;;;;;3.35;2.40;;;;;;;;;;5059677;28;20056;-67
2023/08/13 08:05:19;;;;;;;2.97;1.80;;;;;;;;;;5055293;28;20035;-65
2023/08/13 08:07:46;;;;;;;3.35;2.15;;;;;;;;;;5048823;28;20070;-66
2023/08/13 08:10:12;;;;;;;14.60;7.32;;;;;;;;;;5050301;28;20032;-66
2023/08/13 08:12:38;;;;;;;6.85;2.35;;;;;;;;;;5068847;28;20033;-66
2023/08/13 08:15:05;;;;;;;4.05;3.20;;;;;;;;;;5050029;28;20032;-66
2023/08/13 08:17:33;;;;;;;5.68;2.40;;;;;;;;;;5053922;28;20041;-66
2023/08/13 08:20:00;;;;;;;3.08;1.90;;;;;;;;;;5054253;28;20025;-66
2023/08/13 08:22:26;;;;;;;5.22;2.28;;;;;;;;;;5061757;28;20038;-66
2023/08/13 08:24:52;;;;;;;3.42;2.13;;;;;;;;;;5056583;28;20492;-66
2023/08/13 08:27:18;;;;;;;3.90;2.00;;;;;;;;;;5062597;28;20032;-66
2023/08/13 08:29:45;;;;;;;4.70;1.80;;;;;;;;;;5054825;28;20032;-66
2023/08/13 08:32:11;;;;;;;3.97;1.90;;;;;;;;;;5052777;28;20242;-66
2023/08/13 08:34:37;;;;;;;4.22;2.17;;;;;;;;;;5053915;28;20752;-66
2023/08/13 08:37:06;;;;;;;5.63;2.58;;;;;;;;;;5066171;28;20423;-66
2023/08/13 08:39:32;;;;;;;3.33;1.80;;;;;;;;;;5047400;28;20040;-66
2023/08/13 08:41:59;;;;;;;3.35;1.73;;;;;;;;;;5049235;28;20114;-66
2023/08/13 08:44:25;;;;;;;2.85;1.65;;;;;;;;;;5053552;28;20032;-64
2023/08/13 08:46:52;;;;;;;3.85;2.05;;;;;;;;;;5058213;28;20032;-66
2023/08/13 08:49:19;;;;;;;2.15;1.63;;;;;;;;;;5048860;28;20046;-66
2023/08/13 08:51:45;;;;;;;3.95;1.65;;;;;;;;;;5064258;28;20445;-67
2023/08/13 08:54:12;;;;;;;3.55;1.92;;;;;;;;;;5053572;28;20374;-67
2023/08/13 08:56:38;;;;;;;4.28;1.75;;;;;;;;;;5051785;28;20132;-64
2023/08/13 08:59:05;;;;;;;1.70;1.60;;;;;;;;;;5053308;28;20476;-66
2023/08/13 09:01:31;;;;;;;2.72;1.80;;;;;;;;;;5055858;28;20296;-64
2023/08/13 09:03:57;;;;;;;3.80;1.50;;;;;;;;;;5054453;28;20055;-65
2023/08/13 09:06:23;;;;;;;3.17;1.40;;;;;;;;;;5052331;28;20032;-65
2023/08/13 09:08:49;;;;;;;2.10;1.67;;;;;;;;;;5060095;28;20024;-65
2023/08/13 09:11:18;;;;;;;3.05;2.08;;;;;;;;;;5060092;28;20107;-64
2023/08/13 09:13:51;;;;;;;3.22;1.52;;;;;;;;;;5058222;28;20032;-65
2023/08/13 09:16:19;;;;;;;2.92;1.60;;;;;;;;;;5053953;28;20447;-65
2023/08/13 09:18:45;;;;;;;3.15;1.75;;;;;;;;;;5050005;28;20027;-65
2023/08/13 09:21:11;;;;;;;2.55;1.60;;;;;;;;;;5055555;28;20040;-65
2023/08/13 09:23:41;;;;;;;2.83;1.65;;;;;;;;;;5052679;28;20435;-65
2023/08/13 09:26:07;;;;;;;3.80;1.65;;;;;;;;;;5054541;28;20036;-65
2023/08/13 09:28:34;;;;;;;2.38;1.75;;;;;;;;;;5055383;28;20024;-65
2023/08/13 09:31:00;;;;;;;2.38;1.50;;;;;;;;;;5055016;28;20032;-65
2023/08/13 09:33:26;;;;;;;3.70;1.73;;;;;;;;;;5068165;28;20492;-65
2023/08/13 09:35:52;;;;;;;3.92;1.50;;;;;;;;;;5051670;28;20041;-67
2023/08/13 09:38:18;;;;;;;1.50;1.40;;;;;;;;;;5070778;28;20460;-65
2023/08/13 09:40:45;;;;;;;1.50;1.48;;;;;;;;;;5052771;28;20064;-66
2023/08/13 09:43:16;;;;;;;2.75;1.58;;;;;;;;;;5050121;28;20026;-65
2023/08/13 09:45:44;;;;;;;3.47;2.10;;;;;;;;;;5054922;28;20477;-66
2023/08/13 09:48:11;;;;;;;2.45;2.00;;;;;;;;;;5055307;28;20054;-66
2023/08/13 09:50:41;;;;;;;4.18;1.83;;;;;;;;;;5057270;28;20107;-65
2023/08/13 09:53:11;;;;;;;3.08;1.77;;;;;;;;;;5051157;28;20106;-65
2023/08/13 09:55:40;;;;;;;2.95;1.73;;;;;;;;;;5053333;28;20039;-65
2023/08/13 09:58:08;;;;;;;1.73;1.60;;;;;;;;;;5046662;28;20472;-65
2023/08/13 10:00:34;;;;;;;1.92;1.50;;;;;;;;;;5062612;28;20531;-65
2023/08/13 10:03:01;;;;;;;4.70;1.85;;;;;;;;;;5048354;28;20051;-65
2023/08/13 10:05:29;;;;;;;5.38;1.80;;;;;;;;;;5052629;28;20036;-65
2023/08/13 10:07:56;;;;;;;4.45;1.55;;;;;;;;;;5045463;28;20493;-65
2023/08/13 10:10:22;;;;;;;4.28;1.65;;;;;;;;;;5044770;28;20070;-65
2023/08/13 10:12:49;;;;;;;1.60;1.50;;;;;;;;;;5050184;28;20021;-66
2023/08/13 10:15:15;;;;;;;1.98;1.55;;;;;;;;;;5053717;28;20571;-66
2023/08/13 10:17:44;;;;;;;2.88;1.40;;;;;;;;;;5047709;28;20036;-66
2023/08/13 10:20:11;;;;;;;2.08;1.65;;;;;;;;;;5056794;28;20383;-66
2023/08/13 10:22:38;;;;;;;4.32;1.67;;;;;;;;;;5048424;28;20882;-65
2023/08/13 10:25:07;;;;;;;2.88;1.45;;;;;;;;;;5050618;28;22039;-66
2023/08/13 10:27:36;;;;;;;3.03;1.63;;;;;;;;;;5056289;28;20031;-66
2023/08/13 10:30:09;;;;;;;2.17;1.80;;;;;;;;;;5058116;28;20037;-65
2023/08/13 10:32:47;;;;;;;4.15;2.33;;;;;;;;;;5044737;28;20064;-66
2023/08/13 10:35:20;;;;;;;2.45;1.58;;;;;;;;;;5056696;28;20190;-65
2023/08/13 10:37:49;;;;;;;2.60;1.40;;;;;;;;;;5049399;28;20037;-65
2023/08/13 10:40:16;;;;;;;2.08;1.58;;;;;;;;;;5052173;28;20641;-65
2023/08/13 10:42:44;;;;;;;3.20;1.73;;;;;;;;;;5063379;28;20031;-65
2023/08/13 10:45:11;;;;;;;3.80;1.60;;;;;;;;;;5052674;28;20395;-66
2023/08/13 10:47:58;;;;;;;3.15;1.60;;;;;;;;;;5058425;28;20587;-66
2023/08/13 10:50:33;;;;;;;3.25;1.67;;;;;;;;;;5055764;28;20392;-65
2023/08/13 10:53:04;;;;;;;2.38;1.58;;;;;;;;;;5053469;28;20025;-65
2023/08/13 10:55:36;;;;;;;4.05;1.70;;;;;;;;;;5046990;28;20058;-65
2023/08/13 10:58:02;;;;;;;3.03;1.80;;;;;;;;;;5047306;28;20071;-66
2023/08/13 11:00:29;;;;;;;7.00;2.00;;;;;;;;;;5052616;28;20025;-66
2023/08/13 11:03:16;;;;;;;3.90;1.80;;;;;;;;;;5057048;28;20033;-66
2023/08/13 11:05:43;;;;;;;4.95;1.65;;;;;;;;;;5052345;28;20108;-65
2023/08/13 11:08:11;;;;;;;2.92;1.80;;;;;;;;;;5058845;28;20055;-67
2023/08/13 11:10:38;;;;;;;4.25;1.88;;;;;;;;;;5063464;28;20044;-66
2023/08/13 11:13:05;;;;;;;4.40;2.05;;;;;;;;;;5055647;28;20024;-66
2023/08/13 11:15:31;;;;;;;2.33;1.85;;;;;;;;;;5052202;28;20443;-66
2023/08/13 11:17:57;;;;;;;3.17;1.80;;;;;;;;;;5060111;28;20035;-66
2023/08/13 11:20:23;;;;;;;3.30;2.03;;;;;;;;;;5052248;28;20051;-66
2023/08/13 11:22:49;;;;;;;2.78;1.70;;;;;;;;;;5058516;28;20033;-66
2023/08/13 11:25:15;;;;;;;4.63;1.77;;;;;;;;;;5061869;28;20539;-66
2023/08/13 11:27:42;;;;;;;3.35;2.10;;;;;;;;;;5060411;28;20031;-66
2023/08/13 11:30:08;;;;;;;2.58;1.48;;;;;;;;;;5059209;28;20078;-67
2023/08/13 11:32:38;;;;;;;1.90;1.65;;;;;;;;;;5053388;28;20068;-65
2023/08/13 11:35:05;;;;;;;2.30;1.48;;;;;;;;;;5053675;28;20048;-67
2023/08/13 11:37:32;;;;;;;2.35;1.40;;;;;;;;;;5058511;28;20549;-67
2023/08/13 11:39:58;;;;;;;3.67;1.88;;;;;;;;;;5052657;28;20412;-66
2023/08/13 11:42:24;;;;;;;2.67;1.50;;;;;;;;;;5051869;28;20031;-65
2023/08/13 11:44:50;;;;;;;2.38;1.60;;;;;;;;;;5050347;28;20029;-66
2023/08/13 11:47:29;;;;;;;2.53;1.75;;;;;;;;;;5053817;28;20429;-65
2023/08/13 11:49:57;;;;;;;3.40;1.90;;;;;;;;;;5048709;28;20153;-66
2023/08/13 11:52:23;;;;;;;2.92;1.70;;;;;;;;;;5052195;28;20054;-66
2023/08/13 11:54:49;;;;;;;3.97;1.70;;;;;;;;;;5052687;28;20028;-66
2023/08/13 11:57:16;;;;;;;2.15;1.63;;;;;;;;;;5050806;28;20024;-66
2023/08/13 11:59:44;;;;;;;5.00;1.70;;;;;;;;;;5049666;28;20025;-67
2023/08/13 12:02:10;;;;;;;3.72;1.65;;;;;;;;;;5054481;28;20532;-67
2023/08/13 12:04:36;;;;;;;1.65;1.42;;;;;;;;;;5048616;28;20037;-67
2023/08/13 12:07:07;;;;;;;1.35;1.25;;;;;;;;;;5070102;28;20527;-67
2023/08/13 12:09:33;;;;;;;1.75;1.52;;;;;;;;;;5071052;28;20033;-67
2023/08/13 12:11:59;;;;;;;2.97;2.00;;;;;;;;;;5059218;28;20083;-67
2023/08/13 12:14:25;;;;;;;4.18;1.60;;;;;;;;;;5054216;28;20082;-67
2023/08/13 12:16:51;;;;;;;2.97;1.88;;;;;;;;;;5052709;28;20504;-67
2023/08/13 12:19:17;;;;;;;2.13;1.60;;;;;;;;;;5052392;28;20139;-65
2023/08/13 12:21:43;;;;;;;1.92;1.50;;;;;;;;;;5043279;28;21983;-67
2023/08/13 12:24:10;;;;;;;1.75;1.65;;;;;;;;;;5052106;28;20348;-67
2023/08/13 12:26:36;;;;;;;2.03;1.50;;;;;;;;;;5048537;28;20036;-67
2023/08/13 12:29:02;;;;;;;3.40;2.10;;;;;;;;;;5052132;28;20104;-66
2023/08/13 12:31:30;;;;;;;1.73;1.38;;;;;;;;;;5054234;28;20020;-66
2023/08/13 12:33:56;;;;;;;3.10;1.60;;;;;;;;;;5053990;28;20488;-66
2023/08/13 12:36:22;;;;;;;2.83;1.60;;;;;;;;;;5060065;28;20048;-66
2023/08/13 12:38:48;;;;;;;1.73;1.42;;;;;;;;;;5054433;28;20032;-66
2023/08/13 12:41:14;;;;;;;1.63;1.50;;;;;;;;;;5057489;28;20029;-66
2023/08/13 12:43:40;;;;;;;1.65;1.40;;;;;;;;;;5052161;28;20070;-66
2023/08/13 12:46:09;;;;;;;2.30;2.08;;;;;;;;;;5053159;28;20035;-66
2023/08/13 12:48:37;;;;;;;1.85;1.40;;;;;;;;;;5053280;28;20044;-67
2023/08/13 12:51:04;;;;;;;2.83;1.40;;;;;;;;;;5060203;28;20037;-67
2023/08/13 12:53:30;;;;;;;2.20;2.00;;;;;;;;;;5056339;28;20028;-67
2023/08/13 12:56:04;;;;;;;1.73;1.50;;;;;;;;;;5053526;28;20052;-67
2023/08/13 12:58:30;;;;;;;4.70;1.63;;;;;;;;;;5050913;28;20037;-67
2023/08/13 13:00:57;;;;;;;3.08;1.90;;;;;;;;;;5049741;28;20024;-66
2023/08/13 13:03:23;;;;;;;3.35;2.13;;;;;;;;;;5051248;28;20021;-66
2023/08/13 13:05:50;;;;;;;2.80;1.45;;;;;;;;;;5051509;28;20041;-67
2023/08/13 13:08:16;;;;;;;1.83;1.58;;;;;;;;;;5050811;28;20029;-67
2023/08/13 13:10:42;;;;;;;1.13;1.13;;;;;;;;;;5068653;28;20025;-67
2023/08/13 13:13:08;;;;;;;1.92;1.48;;;;;;;;;;5054797;28;20365;-66
2023/08/13 13:15:35;;;;;;;4.80;1.55;;;;;;;;;;5076862;28;20016;-72
2023/08/13 13:18:01;;;;;;;2.88;1.50;;;;;;;;;;5067599;28;20024;-72
2023/08/13 13:20:27;;;;;;;3.03;1.55;;;;;;;;;;5054309;28;20041;-72
2023/08/13 13:22:53;;;;;;;2.72;2.15;;;;;;;;;;5054435;28;20025;-72
2023/08/13 13:25:19;;;;;;;2.08;1.42;;;;;;;;;;5058468;28;20571;-73
2023/08/13 13:27:46;;;;;;;2.72;1.40;;;;;;;;;;5047616;28;20484;-73
2023/08/13 13:30:12;;;;;;;1.75;1.58;;;;;;;;;;5053683;28;20026;-73
2023/08/13 13:32:38;;;;;;;2.72;1.42;;;;;;;;;;5057037;28;20067;-73
2023/08/13 13:35:05;;;;;;;2.97;1.70;;;;;;;;;;5057140;28;20094;-72
2023/08/13 13:37:34;;;;;;;1.60;1.50;;;;;;;;;;5061749;28;20032;-73
2023/08/13 13:40:00;;;;;;;2.08;1.40;;;;;;;;;;5066388;28;20108;-73
2023/08/13 13:42:26;;;;;;;2.28;1.50;;;;;;;;;;5053236;28;20025;-73
2023/08/13 13:44:52;;;;;;;1.60;1.50;;;;;;;;;;5058636;28;20067;-73
2023/08/13 13:47:18;;;;;;;2.00;1.10;;;;;;;;;;5054789;28;20060;-73
2023/08/13 13:49:44;;;;;;;1.27;1.25;;;;;;;;;;5051683;28;20025;-73
2023/08/13 13:52:11;;;;;;;1.15;1.10;;;;;;;;;;5055633;28;20753;-74
2023/08/13 13:54:37;;;;;;;1.85;1.48;;;;;;;;;;5055503;28;20074;-74
2023/08/13 13:57:03;;;;;;;3.20;1.33;;;;;;;;;;5060310;28;20033;-72
2023/08/13 13:59:29;;;;;;;1.60;1.17;;;;;;;;;;5061381;28;20115;-73
2023/08/13 14:01:55;;;;;;;1.77;1.25;;;;;;;;;;5060119;28;20028;-73
2023/08/13 14:04:21;;;;;;;1.70;1.48;;;;;;;;;;5074014;28;20485;-72
2023/08/13 14:06:50;;;;;;;1.33;1.23;;;;;;;;;;5058436;28;20031;-72
2023/08/13 14:09:16;;;;;;;1.30;1.20;;;;;;;;;;5065758;28;20476;-73
2023/08/13 14:11:42;;;;;;;1.35;1.30;;;;;;;;;;5055532;28;20055;-72
2023/08/13 14:14:08;;;;;;;2.25;1.48;;;;;;;;;;5065548;28;20033;-72
2023/08/13 14:16:34;;;;;;;1.65;1.30;;;;;;;;;;5057588;28;20028;-72
2023/08/13 14:19:00;;;;;;;1.40;1.30;;;;;;;;;;5051026;28;20025;-72
2023/08/13 14:21:26;;;;;;;1.80;1.40;;;;;;;;;;5048200;28;20025;-73
2023/08/13 14:23:52;;;;;;;2.35;1.20;;;;;;;;;;5058942;28;20539;-72
2023/08/13 14:26:18;;;;;;;2.00;1.48;;;;;;;;;;5057448;28;20037;-72
2023/08/13 14:28:45;;;;;;;2.65;1.38;;;;;;;;;;5050256;28;20477;-72
2023/08/13 14:31:11;;;;;;;2.47;1.17;;;;;;;;;;5053023;28;21532;-72
2023/08/13 14:33:37;;;;;;;2.38;1.40;;;;;;;;;;5054749;28;20115;-73
2023/08/13 14:36:03;;;;;;;1.67;1.42;;;;;;;;;;5056657;28;20064;-72
2023/08/13 14:38:30;;;;;;;1.92;1.52;;;;;;;;;;5054260;28;20131;-73
2023/08/13 14:40:57;;;;;;;1.67;1.58;;;;;;;;;;5062250;28;20033;-72